Time;durP1;ratioP1;P1;durP2;ratioP2;P2;SDS_P1;SDS_P2;PMS_P1;PMS_P2;Temp;Humidity;BMP_temperature;BMP_pressure;BME280_temperature;BME280_humidity;BME280_pressure;Samples;Min_cycle;Max_cycle;Signal;HPM_P1;HPM_P2
2022/02/25 00:02:16;;;;;;;0.40;0.40;;;;;;;4.99;100.00;100173.72;4999778;28;20042;-72
2022/02/25 00:04:41;;;;;;;1.90;0.85;;;;;;;4.98;100.00;100174.03;4999917;28;20037;-70
2022/02/25 00:07:07;;;;;;;1.05;0.75;;;;;;;4.98;100.00;100174.03;5004302;28;20037;-70
2022/02/25 00:09:32;;;;;;;0.73;0.47;;;;;;;4.87;100.00;100175.56;4999397;28;20037;-70
2022/02/25 00:11:58;;;;;;;0.75;0.75;;;;;;;4.90;100.00;100181.03;5002476;28;20038;-70
2022/02/25 00:14:24;;;;;;;0.73;0.65;;;;;;;4.81;100.00;100190.22;5003052;28;20548;-70
2022/02/25 00:16:49;;;;;;;1.58;0.77;;;;;;;4.90;100.00;100194.34;5007325;28;20075;-70
2022/02/25 00:19:16;;;;;;;1.27;0.77;;;;;;;4.85;100.00;100197.25;4996592;28;20506;-71
2022/02/25 00:21:41;;;;;;;1.90;0.93;;;;;;;4.99;100.00;100196.97;4994145;28;20040;-70
2022/02/25 00:24:08;;;;;;;0.60;0.60;;;;;;;4.83;100.00;100194.13;5003812;28;21004;-70
2022/02/25 00:26:34;;;;;;;0.55;0.50;;;;;;;4.83;100.00;100207.44;4990868;28;20058;-70
2022/02/25 00:29:00;;;;;;;0.50;0.50;;;;;;;4.93;100.00;100203.59;4999294;28;20037;-70
2022/02/25 00:31:25;;;;;;;1.75;0.60;;;;;;;4.80;100.00;100205.41;5010058;28;20044;-70
2022/02/25 00:33:51;;;;;;;0.52;0.52;;;;;;;4.82;100.00;100216.53;5011595;28;20037;-70
2022/02/25 00:36:16;;;;;;;4.05;0.80;;;;;;;4.79;100.00;100219.88;5008428;28;20549;-70
2022/02/25 00:38:42;;;;;;;1.25;0.52;;;;;;;4.81;100.00;100219.53;5010403;28;20162;-70
2022/02/25 00:41:07;;;;;;;0.77;0.70;;;;;;;4.88;100.00;100217.16;5006678;28;20398;-70
2022/02/25 00:43:32;;;;;;;0.93;0.57;;;;;;;4.83;100.00;100228.78;5005966;28;20037;-70
2022/02/25 00:45:58;;;;;;;0.65;0.50;;;;;;;4.91;100.00;100235.94;5004842;28;20034;-70
2022/02/25 00:48:23;;;;;;;1.70;0.98;;;;;;;4.92;100.00;100244.69;5011224;28;20038;-70
2022/02/25 00:50:49;;;;;;;2.20;0.55;;;;;;;4.88;100.00;100249.91;5008538;28;20111;-70
2022/02/25 00:53:14;;;;;;;6.07;0.73;;;;;;;4.95;100.00;100252.06;5008988;28;20034;-70
2022/02/25 00:55:39;;;;;;;0.70;0.70;;;;;;;5.04;100.00;100266.91;5010152;28;20478;-70
2022/02/25 00:58:05;;;;;;;2.03;0.70;;;;;;;5.12;100.00;100265.25;5012064;28;20026;-70
2022/02/25 01:00:30;;;;;;;2.28;0.63;;;;;;;5.11;100.00;100253.78;5001352;28;20505;-71
2022/02/25 01:02:56;;;;;;;1.35;0.75;;;;;;;5.08;100.00;100269.69;5011329;28;20034;-70
2022/02/25 01:05:22;;;;;;;0.70;0.70;;;;;;;4.97;100.00;100273.88;4999399;28;20042;-70
2022/02/25 01:07:47;;;;;;;6.05;1.23;;;;;;;4.93;100.00;100272.97;4993091;28;20041;-70
2022/02/25 01:10:16;;;;;;;0.52;0.50;;;;;;;4.98;100.00;100273.53;5010952;28;20045;-70
2022/02/25 01:12:46;;;;;;;1.30;0.50;;;;;;;4.87;100.00;100277.72;5011364;28;20064;-70
2022/02/25 01:15:12;;;;;;;7.05;1.08;;;;;;;4.98;100.00;100275.41;5008072;28;20442;-70
2022/02/25 01:17:38;;;;;;;1.13;0.40;;;;;;;4.91;100.00;100278.63;5007795;28;20072;-71
2022/02/25 01:20:05;;;;;;;1.38;0.50;;;;;;;4.94;100.00;100288.63;4992586;28;20034;-70
2022/02/25 01:22:31;;;;;;;1.02;0.63;;;;;;;4.86;100.00;100310.06;4994369;28;20026;-70
2022/02/25 01:24:56;;;;;;;1.70;0.45;;;;;;;4.74;100.00;100297.41;5003045;28;20422;-70
2022/02/25 01:27:21;;;;;;;8.38;1.10;;;;;;;4.89;100.00;100302.16;4999870;28;20068;-70
2022/02/25 01:29:47;;;;;;;0.68;0.32;;;;;;;4.84;100.00;100302.34;4991628;28;20038;-70
2022/02/25 01:32:12;;;;;;;1.45;0.60;;;;;;;4.68;100.00;100293.38;4996502;28;20418;-70
2022/02/25 01:34:38;;;;;;;1.33;0.60;;;;;;;4.72;100.00;100294.28;5010497;28;20121;-71
2022/02/25 01:37:04;;;;;;;7.97;0.50;;;;;;;4.67;100.00;100299.81;4994081;28;20045;-70
2022/02/25 01:39:30;;;;;;;0.60;0.60;;;;;;;4.65;100.00;100294.00;4994481;28;20445;-70
2022/02/25 01:41:56;;;;;;;0.63;0.50;;;;;;;4.78;100.00;100306.31;5003515;28;20033;-71
2022/02/25 01:44:24;;;;;;;0.43;0.43;;;;;;;4.81;100.00;100303.00;5006119;28;20038;-71
2022/02/25 01:46:52;;;;;;;0.35;0.30;;;;;;;4.79;100.00;100305.22;4992963;28;20044;-70
2022/02/25 01:49:19;;;;;;;0.80;0.43;;;;;;;4.67;100.00;100302.47;5006794;28;20473;-70
2022/02/25 01:51:46;;;;;;;0.40;0.40;;;;;;;4.64;100.00;100305.00;5000194;28;20030;-70
2022/02/25 01:54:12;;;;;;;1.52;0.68;;;;;;;4.62;100.00;100302.66;5007650;28;20466;-70
2022/02/25 01:56:39;;;;;;;1.05;0.77;;;;;;;4.53;100.00;100299.25;5008886;28;20048;-70
2022/02/25 01:59:05;;;;;;;5.15;0.50;;;;;;;4.52;100.00;100317.16;5009874;28;20037;-70
2022/02/25 02:01:31;;;;;;;0.75;0.75;;;;;;;4.62;100.00;100305.34;5001474;28;20041;-70
2022/02/25 02:03:56;;;;;;;0.40;0.40;;;;;;;4.71;100.00;100313.25;5004190;28;20038;-70
2022/02/25 02:06:22;;;;;;;0.30;0.30;;;;;;;4.74;100.00;100299.31;5011456;28;20044;-70
2022/02/25 02:08:48;;;;;;;0.93;0.50;;;;;;;4.69;100.00;100305.59;4996797;28;20030;-71
2022/02/25 02:11:35;;;;;;;0.40;0.40;;;;;;;4.51;100.00;100312.91;4990958;28;20038;-71
2022/02/25 02:14:04;;;;;;;1.65;0.52;;;;;;;4.53;100.00;100313.38;4995228;28;20376;-70
2022/02/25 02:16:30;;;;;;;0.30;0.30;;;;;;;4.46;100.00;100307.78;5006626;28;20037;-71
2022/02/25 02:18:55;;;;;;;0.82;0.50;;;;;;;4.49;100.00;100314.38;5009452;28;20120;-71
2022/02/25 02:21:26;;;;;;;2.65;0.63;;;;;;;4.45;100.00;100306.19;5009912;28;20421;-71
2022/02/25 02:23:54;;;;;;;1.77;1.13;;;;;;;4.47;100.00;100316.56;5005255;28;20033;-70
2022/02/25 02:26:19;;;;;;;0.60;0.40;;;;;;;4.36;100.00;100323.34;4998712;28;20472;-70
2022/02/25 02:28:45;;;;;;;0.57;0.55;;;;;;;4.48;100.00;100318.13;5005700;28;20052;-71
2022/02/25 02:31:10;;;;;;;4.70;0.80;;;;;;;4.58;100.00;100309.75;4990227;28;20029;-70
2022/02/25 02:33:37;;;;;;;0.38;0.28;;;;;;;4.56;100.00;100317.28;5002975;28;20686;-70
2022/02/25 02:36:07;;;;;;;0.40;0.40;;;;;;;4.54;100.00;100311.50;5010395;28;20443;-70
2022/02/25 02:38:32;;;;;;;0.38;0.38;;;;;;;4.66;100.00;100310.81;5010503;28;20553;-70
2022/02/25 02:40:58;;;;;;;2.90;0.80;;;;;;;4.75;100.00;100304.31;5006557;28;20069;-70
2022/02/25 02:43:24;;;;;;;0.85;0.40;;;;;;;4.78;99.90;100310.88;5010243;28;20475;-70
2022/02/25 02:45:49;;;;;;;0.30;0.30;;;;;;;4.71;100.00;100318.59;5010115;28;20060;-70
2022/02/25 02:48:15;;;;;;;2.42;0.40;;;;;;;4.78;100.00;100314.31;5001642;28;20038;-70
2022/02/25 02:50:41;;;;;;;5.18;0.88;;;;;;;4.84;99.60;100318.34;5008058;28;20100;-70
2022/02/25 02:53:10;;;;;;;2.45;0.63;;;;;;;4.80;100.00;100330.00;5005632;28;20033;-70
2022/02/25 02:55:35;;;;;;;4.00;0.63;;;;;;;4.92;99.42;100330.84;5007847;28;20033;-71
2022/02/25 02:58:01;;;;;;;1.27;0.65;;;;;;;4.90;99.66;100333.06;4999749;28;20170;-69
2022/02/25 03:00:27;;;;;;;1.27;0.50;;;;;;;4.81;99.26;100337.69;4997207;28;20045;-72
2022/02/25 03:02:52;;;;;;;0.60;0.60;;;;;;;4.76;99.82;100329.09;5010635;28;20033;-71
2022/02/25 03:05:18;;;;;;;1.52;0.63;;;;;;;4.85;99.58;100322.59;4976935;28;20048;-71
2022/02/25 03:07:46;;;;;;;4.10;0.47;;;;;;;4.91;99.34;100339.97;5006214;28;20050;-71
2022/02/25 03:10:13;;;;;;;0.50;0.50;;;;;;;4.87;98.73;100339.06;4996027;28;20037;-72
2022/02/25 03:12:40;;;;;;;0.40;0.40;;;;;;;4.73;98.85;100345.72;5002780;28;20041;-71
2022/02/25 03:15:06;;;;;;;1.83;0.65;;;;;;;4.87;99.47;100335.59;4993073;28;20164;-71
2022/02/25 03:17:32;;;;;;;1.02;0.70;;;;;;;4.85;98.12;100343.94;5011091;28;20117;-72
2022/02/25 03:19:59;;;;;;;0.57;0.40;;;;;;;4.80;99.17;100328.09;5004690;28;20113;-71
2022/02/25 03:22:25;;;;;;;0.20;0.20;;;;;;;4.85;98.50;100341.25;4998242;28;20030;-71
2022/02/25 03:24:54;;;;;;;0.43;0.40;;;;;;;4.95;98.51;100351.56;5005470;28;20164;-71
2022/02/25 03:27:20;;;;;;;0.50;0.30;;;;;;;4.86;98.05;100340.16;5007397;28;20165;-71
2022/02/25 03:29:45;;;;;;;0.30;0.30;;;;;;;4.95;98.48;100356.91;5009925;28;20072;-71
2022/02/25 03:32:11;;;;;;;1.10;1.00;;;;;;;4.98;97.67;100348.22;4991923;28;20533;-71
2022/02/25 03:34:37;;;;;;;1.27;0.43;;;;;;;4.96;98.19;100363.78;4992680;28;20045;-71
2022/02/25 03:37:04;;;;;;;1.17;0.50;;;;;;;5.02;98.07;100357.16;5010302;28;20112;-70
2022/02/25 03:39:29;;;;;;;0.77;0.70;;;;;;;5.04;97.79;100362.16;5008903;28;20050;-71
2022/02/25 03:41:54;;;;;;;0.55;0.38;;;;;;;4.91;98.51;100363.97;5009885;28;20479;-72
2022/02/25 03:44:20;;;;;;;0.35;0.35;;;;;;;4.93;98.20;100361.78;5001871;28;20084;-71
2022/02/25 03:46:47;;;;;;;3.60;0.95;;;;;;;4.92;98.36;100362.88;5010600;28;20483;-71
2022/02/25 03:49:12;;;;;;;0.47;0.40;;;;;;;4.99;97.88;100367.69;5009119;28;20037;-71
2022/02/25 03:51:38;;;;;;;0.68;0.68;;;;;;;4.79;98.22;100369.22;5008460;28;20235;-71
2022/02/25 03:54:03;;;;;;;0.38;0.38;;;;;;;4.74;98.53;100366.75;4991534;28;20407;-70
2022/02/25 03:56:29;;;;;;;4.47;0.60;;;;;;;4.75;98.54;100365.63;4989968;28;20114;-71
2022/02/25 03:58:54;;;;;;;1.23;0.73;;;;;;;4.83;98.49;100375.47;5000159;28;20053;-69
2022/02/25 04:01:20;;;;;;;1.27;0.80;;;;;;;4.87;98.09;100375.59;5008008;28;20069;-71
2022/02/25 04:03:46;;;;;;;0.32;0.32;;;;;;;4.95;97.77;100380.91;5009570;28;20042;-71
2022/02/25 04:06:11;;;;;;;6.20;0.80;;;;;;;4.92;98.21;100391.41;5008722;28;20129;-69
2022/02/25 04:08:37;;;;;;;0.40;0.40;;;;;;;4.81;97.91;100383.03;5011390;28;20027;-71
2022/02/25 04:11:02;;;;;;;3.30;0.60;;;;;;;4.52;99.03;100375.03;4989915;28;20461;-70
2022/02/25 04:13:28;;;;;;;1.67;0.82;;;;;;;4.64;99.83;100385.78;5012627;28;20418;-70
2022/02/25 04:15:53;;;;;;;1.75;0.73;;;;;;;4.65;99.09;100386.53;5013583;28;20454;-70
2022/02/25 04:18:19;;;;;;;1.83;1.05;;;;;;;4.73;98.93;100380.38;5012112;28;20118;-71
2022/02/25 04:20:44;;;;;;;0.50;0.28;;;;;;;4.84;99.52;100393.03;5002289;28;20487;-70
2022/02/25 04:23:10;;;;;;;0.65;0.30;;;;;;;4.83;99.00;100404.81;5012667;28;20040;-70
2022/02/25 04:25:35;;;;;;;0.50;0.50;;;;;;;4.91;97.75;100403.22;5003660;28;20026;-70
2022/02/25 04:28:01;;;;;;;0.85;0.85;;;;;;;4.73;98.57;100396.41;5006870;28;20038;-70
2022/02/25 04:30:28;;;;;;;0.20;0.20;;;;;;;4.76;98.43;100385.88;5012102;28;20061;-70
2022/02/25 04:32:53;;;;;;;0.30;0.30;;;;;;;4.83;98.10;100390.69;5012368;28;20044;-70
2022/02/25 04:35:20;;;;;;;0.43;0.43;;;;;;;4.75;98.42;100394.97;5007555;28;20038;-70
2022/02/25 04:37:46;;;;;;;0.32;0.32;;;;;;;4.72;97.88;100398.31;5004692;28;20406;-70
2022/02/25 04:40:12;;;;;;;2.88;0.75;;;;;;;4.82;97.52;100389.91;5011796;28;20029;-70
2022/02/25 04:42:37;;;;;;;1.83;0.68;;;;;;;4.81;97.19;100393.69;5001667;28;20080;-70
2022/02/25 04:45:05;;;;;;;0.63;0.40;;;;;;;4.83;96.67;100394.16;4998355;28;20481;-70
2022/02/25 04:47:31;;;;;;;4.88;0.60;;;;;;;4.96;97.15;100390.47;5010919;28;20030;-70
2022/02/25 04:49:57;;;;;;;0.40;0.40;;;;;;;4.79;96.71;100403.91;4999384;28;20042;-70
2022/02/25 04:52:22;;;;;;;4.22;0.65;;;;;;;4.99;96.22;100403.16;4995513;28;20038;-70
2022/02/25 04:54:48;;;;;;;0.70;0.30;;;;;;;4.91;95.66;100403.22;5011764;28;20049;-70
2022/02/25 04:57:13;;;;;;;0.98;0.45;;;;;;;4.95;96.03;100404.91;5011245;28;20084;-71
2022/02/25 04:59:39;;;;;;;4.55;0.47;;;;;;;4.99;95.45;100397.03;5007236;28;20034;-70
2022/02/25 05:02:04;;;;;;;0.52;0.43;;;;;;;5.13;95.21;100417.03;5008870;28;20470;-70
2022/02/25 05:04:30;;;;;;;0.90;0.50;;;;;;;5.13;94.98;100417.03;5010464;28;20078;-70
2022/02/25 05:06:55;;;;;;;0.57;0.57;;;;;;;5.00;94.51;100412.72;5004130;28;20070;-70
2022/02/25 05:09:20;;;;;;;2.83;0.40;;;;;;;5.01;94.50;100418.84;5010185;28;20442;-71
2022/02/25 05:11:46;;;;;;;0.55;0.50;;;;;;;4.88;94.87;100415.28;5005063;28;20061;-70
2022/02/25 05:20:15;;;;;;;8.38;0.63;;;;;;;5.10;95.47;100417.69;5009688;28;20037;-70
2022/02/25 05:22:27;;;;;;;0.32;0.32;;;;;;;4.89;94.79;100424.09;5011440;28;21030;-70
2022/02/25 05:24:52;;;;;;;1.52;0.88;;;;;;;4.72;96.13;100430.28;5012591;28;20061;-70
2022/02/25 05:27:20;;;;;;;5.15;0.50;;;;;;;4.81;96.18;100436.38;5027085;28;20092;-71
2022/02/25 05:29:46;;;;;;;0.38;0.38;;;;;;;4.88;95.86;100444.63;5000363;28;20083;-70
2022/02/25 05:32:12;;;;;;;0.50;0.50;;;;;;;4.93;95.58;100433.00;5006664;28;20034;-70
2022/02/25 05:34:37;;;;;;;1.35;0.50;;;;;;;4.84;95.64;100454.38;4999825;28;20798;-70
2022/02/25 05:37:04;;;;;;;0.35;0.35;;;;;;;4.75;96.05;100440.31;4995453;28;20026;-70
2022/02/25 05:39:30;;;;;;;1.65;0.50;;;;;;;4.75;95.89;100439.53;4994742;28;20049;-70
2022/02/25 05:41:55;;;;;;;0.57;0.57;;;;;;;4.71;96.70;100442.06;4993980;28;20042;-70
2022/02/25 05:44:20;;;;;;;0.65;0.40;;;;;;;4.73;96.99;100439.06;4990488;28;20492;-70
2022/02/25 05:46:46;;;;;;;0.80;0.55;;;;;;;4.73;96.61;100442.53;4994665;28;20513;-70
2022/02/25 05:49:11;;;;;;;1.13;0.50;;;;;;;4.71;96.82;100458.06;4997656;28;20038;-70
2022/02/25 05:51:37;;;;;;;5.70;0.70;;;;;;;4.79;96.48;100467.91;4995888;28;20040;-70
2022/02/25 05:54:02;;;;;;;2.67;0.40;;;;;;;4.77;96.18;100466.66;4997809;28;20137;-70
2022/02/25 05:56:28;;;;;;;0.70;0.50;;;;;;;4.81;96.59;100464.91;4998509;28;20057;-70
2022/02/25 05:58:53;;;;;;;3.70;0.35;;;;;;;4.79;96.89;100457.25;5000758;28;20038;-70
2022/02/25 06:01:19;;;;;;;1.30;0.50;;;;;;;4.89;96.39;100462.22;5002529;28;20426;-70
2022/02/25 06:03:45;;;;;;;0.20;0.20;;;;;;;4.89;96.03;100466.75;5012067;28;20045;-70
2022/02/25 06:06:10;;;;;;;4.68;0.43;;;;;;;4.89;95.45;100472.88;5011614;28;20113;-71
2022/02/25 06:08:36;;;;;;;4.43;0.70;;;;;;;4.89;95.90;100470.22;5010817;28;20048;-70
2022/02/25 06:11:02;;;;;;;3.08;0.77;;;;;;;4.92;95.26;100474.13;5010051;28;20037;-70
2022/02/25 06:13:28;;;;;;;0.28;0.28;;;;;;;4.88;95.50;100473.97;5007654;28;20038;-70
2022/02/25 06:15:53;;;;;;;2.92;0.40;;;;;;;5.03;95.26;100491.34;5002646;28;20037;-70
2022/02/25 06:18:19;;;;;;;0.75;0.40;;;;;;;5.06;94.63;100486.16;5009206;28;20037;-70
2022/02/25 06:20:44;;;;;;;2.05;0.57;;;;;;;4.99;95.04;100474.41;4990873;28;20048;-71
2022/02/25 06:23:10;;;;;;;1.48;0.45;;;;;;;5.15;94.68;100486.88;4988720;28;20038;-70
2022/02/25 06:25:36;;;;;;;0.50;0.30;;;;;;;5.09;94.41;100482.81;5007986;28;20486;-70
2022/02/25 06:28:02;;;;;;;0.70;0.40;;;;;;;4.95;95.34;100484.94;4995120;28;20033;-70
2022/02/25 06:30:27;;;;;;;3.90;0.60;;;;;;;4.89;94.73;100488.09;5010004;28;20084;-70
2022/02/25 06:32:53;;;;;;;0.57;0.40;;;;;;;4.93;95.82;100473.81;4995340;28;20033;-70
2022/02/25 06:35:19;;;;;;;1.20;0.52;;;;;;;4.99;94.86;100480.53;5011187;28;20021;-70
2022/02/25 06:37:44;;;;;;;0.22;0.22;;;;;;;5.11;94.85;100493.94;5005316;28;20089;-70
2022/02/25 06:40:11;;;;;;;0.25;0.25;;;;;;;5.13;94.52;100486.41;4990582;28;20046;-70
2022/02/25 06:42:38;;;;;;;0.30;0.30;;;;;;;5.04;93.97;100480.34;5000848;28;20045;-70
2022/02/25 06:45:04;;;;;;;0.60;0.60;;;;;;;5.06;94.18;100485.34;5011138;28;20030;-70
2022/02/25 06:47:30;;;;;;;0.73;0.45;;;;;;;4.95;94.83;100484.16;5002949;28;20034;-73
2022/02/25 06:49:55;;;;;;;1.63;0.38;;;;;;;4.94;94.34;100482.56;4996852;28;20038;-71
2022/02/25 06:52:21;;;;;;;1.70;0.57;;;;;;;5.05;94.82;100492.56;4994871;28;20036;-70
2022/02/25 06:54:46;;;;;;;5.40;0.73;;;;;;;5.02;94.73;100487.09;4998384;28;20399;-70
2022/02/25 06:57:12;;;;;;;2.83;0.40;;;;;;;5.02;94.44;100479.09;4993095;28;20030;-70
2022/02/25 06:59:37;;;;;;;1.65;0.47;;;;;;;4.95;94.55;100481.50;4997260;28;20084;-70
2022/02/25 07:02:03;;;;;;;2.25;0.43;;;;;;;4.99;94.05;100485.88;5011214;28;20053;-70
2022/02/25 07:04:29;;;;;;;1.25;0.52;;;;;;;5.03;94.72;100478.00;5001315;28;20038;-70
2022/02/25 07:06:54;;;;;;;0.52;0.40;;;;;;;5.16;94.70;100487.66;5007701;28;20030;-71
2022/02/25 07:09:20;;;;;;;0.75;0.55;;;;;;;5.20;94.46;100480.56;4993847;28;20418;-71
2022/02/25 07:11:46;;;;;;;0.40;0.40;;;;;;;5.23;93.89;100490.59;4994225;28;20042;-71
2022/02/25 07:14:11;;;;;;;1.05;0.50;;;;;;;5.10;94.62;100491.63;5006928;28;20037;-71
2022/02/25 07:16:36;;;;;;;1.75;0.95;;;;;;;5.17;94.12;100498.00;5001514;28;20113;-71
2022/02/25 07:19:02;;;;;;;0.38;0.38;;;;;;;5.18;93.94;100494.25;4988960;28;20395;-71
2022/02/25 07:21:28;;;;;;;0.75;0.43;;;;;;;5.17;94.91;100499.88;5004378;28;20025;-72
2022/02/25 07:23:53;;;;;;;1.83;1.08;;;;;;;5.13;94.28;100512.34;4992700;28;20049;-72
2022/02/25 07:26:19;;;;;;;0.60;0.60;;;;;;;5.21;95.39;100511.47;4999288;28;20466;-72
2022/02/25 07:28:44;;;;;;;1.48;0.75;;;;;;;5.40;93.92;100498.53;5000820;28;20069;-72
2022/02/25 07:31:10;;;;;;;1.75;0.80;;;;;;;5.33;93.53;100507.03;4991282;28;20034;-72
2022/02/25 07:33:35;;;;;;;0.80;0.80;;;;;;;5.37;94.25;100507.16;5003707;28;20033;-72
2022/02/25 07:36:01;;;;;;;0.57;0.57;;;;;;;5.34;93.21;100508.59;5008702;28;20030;-72
2022/02/25 07:38:26;;;;;;;1.02;0.50;;;;;;;5.19;94.14;100516.34;5010092;28;20080;-72
2022/02/25 07:40:52;;;;;;;2.38;0.50;;;;;;;5.27;94.50;100513.66;4996976;28;20030;-72
2022/02/25 07:43:22;;;;;;;0.75;0.65;;;;;;;5.22;94.59;100513.84;5006481;28;20719;-72
2022/02/25 07:45:51;;;;;;;1.70;0.60;;;;;;;5.31;94.60;100525.25;5002481;28;20080;-72
2022/02/25 07:48:18;;;;;;;0.50;0.50;;;;;;;5.43;93.81;100512.00;5009661;28;20042;-72
2022/02/25 07:50:45;;;;;;;3.45;1.27;;;;;;;5.53;93.77;100510.06;5004215;28;20030;-72
2022/02/25 07:53:12;;;;;;;1.25;1.05;;;;;;;5.67;93.49;100516.69;5014538;28;20080;-72
2022/02/25 07:55:38;;;;;;;0.60;0.60;;;;;;;5.84;91.56;100508.59;5014456;28;20038;-72
2022/02/25 07:58:05;;;;;;;3.85;0.73;;;;;;;5.71;91.21;100504.25;5007999;28;20029;-72
2022/02/25 08:00:31;;;;;;;3.17;0.90;;;;;;;5.87;91.40;100515.16;5010111;28;20076;-72
2022/02/25 08:02:57;;;;;;;1.30;0.50;;;;;;;5.97;90.28;100506.75;5008387;28;20557;-71
2022/02/25 08:05:24;;;;;;;0.80;0.75;;;;;;;5.96;90.86;100511.31;5004931;28;20065;-72
2022/02/25 08:07:50;;;;;;;1.60;0.77;;;;;;;6.13;90.27;100489.81;4998548;28;20568;-72
2022/02/25 08:10:16;;;;;;;2.80;0.88;;;;;;;6.24;89.59;100509.66;4998307;28;20133;-72
2022/02/25 08:12:42;;;;;;;0.85;0.80;;;;;;;6.17;88.38;100503.28;5005939;28;20056;-72
2022/02/25 08:15:09;;;;;;;0.93;0.70;;;;;;;6.22;88.35;100508.44;5006205;28;20096;-72
2022/02/25 08:17:36;;;;;;;3.63;1.27;;;;;;;6.13;89.34;100526.44;5005394;28;20052;-72
2022/02/25 08:20:02;;;;;;;3.63;1.30;;;;;;;6.16;89.00;100521.22;4996389;28;21682;-72
2022/02/25 08:22:27;;;;;;;2.53;1.00;;;;;;;6.05;89.05;100519.28;5005628;28;20552;-72
2022/02/25 08:24:53;;;;;;;1.60;1.02;;;;;;;6.05;88.91;100529.97;5004076;28;20026;-71
2022/02/25 08:27:18;;;;;;;7.63;1.02;;;;;;;6.09;88.56;100528.19;5006428;28;20046;-72
2022/02/25 08:29:44;;;;;;;0.75;0.75;;;;;;;5.99;88.33;100536.63;5005070;28;20100;-72
2022/02/25 08:32:09;;;;;;;0.95;0.85;;;;;;;5.86;89.49;100524.31;5004165;28;20092;-72
2022/02/25 08:34:36;;;;;;;0.80;0.80;;;;;;;5.76;89.79;100535.34;5006432;28;20030;-72
2022/02/25 08:37:01;;;;;;;2.92;1.05;;;;;;;5.78;89.70;100536.59;5003810;28;20153;-72
2022/02/25 08:39:27;;;;;;;2.13;0.70;;;;;;;5.72;89.53;100534.44;5000860;28;20550;-72
2022/02/25 08:41:53;;;;;;;1.30;0.93;;;;;;;5.73;89.85;100534.09;4999833;28;20102;-72
2022/02/25 08:44:18;;;;;;;2.38;1.20;;;;;;;5.57;90.79;100533.13;5002356;28;20038;-70
2022/02/25 08:46:45;;;;;;;1.65;1.00;;;;;;;5.63;89.98;100536.38;5006751;28;20125;-71
2022/02/25 08:49:11;;;;;;;3.15;0.93;;;;;;;5.48;90.66;100549.19;5003754;28;20049;-71
2022/02/25 08:51:36;;;;;;;0.70;0.70;;;;;;;5.35;91.89;100534.19;5002241;28;20030;-72
2022/02/25 08:54:03;;;;;;;1.67;1.00;;;;;;;5.35;91.73;100522.72;4997231;28;20799;-72
2022/02/25 08:56:32;;;;;;;8.25;1.05;;;;;;;5.37;91.88;100523.19;4991455;28;20034;-72
2022/02/25 08:58:57;;;;;;;1.45;0.80;;;;;;;5.42;93.22;100517.63;5008079;28;20038;-71
2022/02/25 09:01:23;;;;;;;1.33;0.93;;;;;;;5.55;94.16;100530.00;5005053;28;20034;-72
2022/02/25 09:03:49;;;;;;;0.88;0.88;;;;;;;5.45;95.84;100544.50;5013104;28;20043;-72
2022/02/25 09:06:15;;;;;;;2.65;0.98;;;;;;;5.57;96.32;100543.00;5005486;28;20033;-72
2022/02/25 09:08:41;;;;;;;3.28;1.25;;;;;;;5.60;96.17;100540.47;5011043;28;20021;-72
2022/02/25 09:11:08;;;;;;;4.75;1.15;;;;;;;5.67;96.37;100535.38;5001765;28;20175;-72
2022/02/25 09:13:33;;;;;;;1.27;0.95;;;;;;;5.62;95.41;100546.28;5011625;28;20030;-72
2022/02/25 09:15:58;;;;;;;1.58;0.90;;;;;;;5.71;94.79;100551.56;5007359;28;20041;-72
2022/02/25 09:18:24;;;;;;;1.23;0.77;;;;;;;5.64;95.16;100543.28;5003893;28;20052;-72
2022/02/25 09:20:51;;;;;;;4.47;1.52;;;;;;;5.61;96.03;100562.63;5012464;28;20034;-72
2022/02/25 09:23:17;;;;;;;3.72;0.80;;;;;;;5.48;96.89;100549.19;4987487;28;20034;-72
2022/02/25 09:25:43;;;;;;;1.60;0.60;;;;;;;5.47;97.54;100557.53;5011198;28;20080;-72
2022/02/25 09:28:08;;;;;;;1.20;1.10;;;;;;;5.39;98.02;100569.81;5007295;28;20418;-72
2022/02/25 09:30:34;;;;;;;4.82;0.88;;;;;;;5.26;98.83;100572.72;5009051;28;20562;-71
2022/02/25 09:33:00;;;;;;;2.47;0.77;;;;;;;5.29;98.87;100556.81;4996548;28;20036;-71
2022/02/25 09:35:26;;;;;;;5.38;1.63;;;;;;;5.45;98.95;100551.72;5003552;28;20068;-72
2022/02/25 09:37:52;;;;;;;1.63;1.20;;;;;;;5.49;98.63;100566.00;5002313;28;20030;-72
2022/02/25 09:40:18;;;;;;;2.05;1.35;;;;;;;5.63;98.52;100560.41;5004526;28;20514;-72
2022/02/25 09:42:44;;;;;;;1.67;1.05;;;;;;;5.56;97.68;100574.28;4998182;28;20026;-72
2022/02/25 09:45:12;;;;;;;1.05;0.75;;;;;;;5.58;97.98;100569.38;4994718;28;20716;-72
2022/02/25 09:47:38;;;;;;;1.33;0.90;;;;;;;5.66;98.07;100575.78;4997253;28;20038;-72
2022/02/25 09:50:05;;;;;;;1.42;0.77;;;;;;;5.71;97.19;100570.28;4996695;28;20034;-71
2022/02/25 09:52:34;;;;;;;1.48;0.70;;;;;;;5.85;97.19;100597.53;4999373;28;20025;-71
2022/02/25 09:55:00;;;;;;;2.92;1.88;;;;;;;5.78;96.33;100595.38;4992891;28;20046;-72
2022/02/25 09:57:26;;;;;;;3.80;1.58;;;;;;;5.68;96.22;100595.72;4999190;28;20109;-72
2022/02/25 09:59:51;;;;;;;1.75;1.27;;;;;;;5.85;97.12;100605.56;5000443;28;20033;-72
2022/02/25 10:02:19;;;;;;;1.45;0.90;;;;;;;5.74;96.58;100605.13;4993384;28;20088;-72
2022/02/25 10:04:45;;;;;;;1.58;1.02;;;;;;;5.77;96.66;100596.44;4995464;28;20025;-72
2022/02/25 10:07:27;;;;;;;1.17;0.90;;;;;;;5.80;97.06;100606.50;4995162;28;20044;-72
2022/02/25 10:09:56;;;;;;;2.13;1.13;;;;;;;5.56;97.40;100605.53;4989626;28;20049;-71
2022/02/25 10:12:23;;;;;;;2.33;1.10;;;;;;;5.62;98.34;100598.91;5004246;28;20144;-72
2022/02/25 10:14:49;;;;;;;1.63;1.10;;;;;;;5.81;97.93;100591.25;5001049;28;20037;-71
2022/02/25 10:17:21;;;;;;;2.00;1.08;;;;;;;5.93;96.41;100604.72;5007247;28;20045;-72
2022/02/25 10:20:00;;;;;;;3.15;1.10;;;;;;;5.62;97.63;100601.56;4998699;28;20124;-71
2022/02/25 10:22:27;;;;;;;0.98;0.88;;;;;;;5.82;97.42;100608.84;4983602;28;20121;-72
2022/02/25 10:25:12;;;;;;;4.75;1.23;;;;;;;5.88;97.15;100607.59;5003072;28;20037;-72
2022/02/25 10:27:44;;;;;;;1.85;1.00;;;;;;;5.86;97.32;100596.44;5007960;28;20026;-71
2022/02/25 10:30:12;;;;;;;1.73;1.23;;;;;;;5.76;98.66;100589.56;5008469;28;20030;-72
2022/02/25 10:32:41;;;;;;;7.20;1.38;;;;;;;5.93;99.92;100604.72;5005210;28;20036;-72
2022/02/25 10:35:25;;;;;;;2.53;1.17;;;;;;;6.02;98.36;100608.13;5006975;28;20109;-71
2022/02/25 10:38:01;;;;;;;3.15;1.13;;;;;;;6.06;98.07;100606.34;5005737;28;22299;-72
2022/02/25 10:40:29;;;;;;;4.10;1.10;;;;;;;5.83;100.00;100608.56;4999468;28;20717;-72
2022/02/25 10:42:55;;;;;;;1.23;0.93;;;;;;;5.74;100.00;100615.03;4996623;28;20034;-71
2022/02/25 10:45:33;;;;;;;1.88;1.20;;;;;;;5.66;100.00;100605.97;5005551;28;20048;-71
2022/02/25 10:48:02;;;;;;;2.33;1.20;;;;;;;5.73;100.00;100606.22;5005924;28;20088;-71
2022/02/25 10:50:28;;;;;;;1.95;1.15;;;;;;;5.65;100.00;100612.41;5001245;28;20454;-71
2022/02/25 10:52:55;;;;;;;1.63;1.05;;;;;;;5.63;100.00;100613.84;5000290;28;20034;-72
2022/02/25 10:55:23;;;;;;;1.38;0.95;;;;;;;5.65;100.00;100616.97;5009987;28;20048;-72
2022/02/25 10:57:51;;;;;;;1.55;1.00;;;;;;;5.71;100.00;100621.78;5009486;28;20129;-72
2022/02/25 11:00:18;;;;;;;4.00;0.77;;;;;;;5.59;100.00;100620.91;5006021;28;20045;-72
2022/02/25 11:02:47;;;;;;;1.10;1.00;;;;;;;5.58;100.00;100612.13;5008387;28;20603;-71
2022/02/25 11:05:18;;;;;;;1.85;1.02;;;;;;;5.67;100.00;100622.78;5009925;28;20017;-72
2022/02/25 11:07:52;;;;;;;2.67;1.23;;;;;;;5.63;100.00;100627.19;5006897;28;20129;-71
2022/02/25 11:10:20;;;;;;;0.77;0.77;;;;;;;5.65;100.00;100619.63;4997653;28;20077;-71
2022/02/25 11:12:48;;;;;;;5.72;1.45;;;;;;;5.67;100.00;100623.53;5007264;28;20072;-72
2022/02/25 11:15:31;;;;;;;1.75;1.25;;;;;;;5.75;100.00;100625.38;5008828;28;20548;-72
2022/02/25 11:17:57;;;;;;;1.42;1.25;;;;;;;5.74;100.00;100628.38;5001254;28;20096;-71
2022/02/25 11:20:25;;;;;;;3.60;1.48;;;;;;;5.58;100.00;100617.47;5005509;28;20125;-71
2022/02/25 11:22:59;;;;;;;4.38;1.25;;;;;;;5.61;100.00;100624.06;4997720;28;20610;-72
2022/02/25 11:25:26;;;;;;;3.00;1.38;;;;;;;5.59;100.00;100615.59;5010532;28;20120;-72
2022/02/25 11:27:52;;;;;;;3.45;1.00;;;;;;;5.42;100.00;100622.56;5012517;28;20018;-72
2022/02/25 11:30:49;;;;;;;1.65;1.20;;;;;;;5.53;100.00;100624.88;5005981;28;20045;-71
2022/02/25 11:33:25;;;;;;;3.85;1.17;;;;;;;5.73;100.00;100624.16;5009879;28;20042;-72
2022/02/25 11:35:54;;;;;;;4.85;1.75;;;;;;;5.65;100.00;100631.13;5009079;28;20033;-72